createdAt,value
2019-05-14T00:01:56.622Z,13.97
2019-05-14T00:04:26.947Z,15.60
2019-05-14T00:06:57.196Z,15.40
2019-05-14T00:09:27.305Z,15.40
2019-05-14T00:11:57.812Z,14.37
2019-05-14T00:14:39.204Z,13.03
2019-05-14T00:17:01.767Z,14.97
2019-05-14T00:19:32.430Z,15.00
2019-05-14T00:22:02.700Z,16.90
2019-05-14T00:24:32.967Z,15.80
2019-05-14T00:27:03.402Z,17.33
2019-05-14T00:29:33.665Z,16.70
2019-05-14T00:32:04.089Z,16.97
2019-05-14T00:34:34.419Z,17.00
2019-05-14T00:37:04.718Z,16.57
2019-05-14T00:39:35.117Z,16.43
2019-05-14T00:42:05.599Z,16.33
2019-05-14T00:44:35.871Z,17.10
2019-05-14T00:47:06.118Z,18.20
2019-05-14T00:49:36.856Z,18.20
2019-05-14T00:52:07.153Z,17.40
2019-05-14T00:54:37.369Z,17.33
2019-05-14T00:57:07.694Z,18.93
2019-05-14T00:59:38.170Z,17.67
2019-05-14T01:02:11.183Z,17.67
2019-05-14T01:04:42.768Z,19.60
2019-05-14T01:07:15.363Z,18.20
2019-05-14T01:09:45.768Z,17.60
2019-05-14T01:12:16.137Z,17.87
2019-05-14T01:14:46.355Z,18.57
2019-05-14T01:17:16.763Z,17.47
2019-05-14T01:19:47.225Z,17.00
2019-05-14T01:22:17.857Z,17.87
2019-05-14T01:24:48.059Z,18.20
2019-05-14T01:27:18.371Z,17.07
2019-05-14T01:29:51.194Z,18.97
2019-05-14T01:32:22.085Z,18.43
2019-05-14T01:34:52.493Z,18.20
2019-05-14T01:37:22.779Z,18.43
2019-05-14T01:39:53.176Z,16.20
2019-05-14T01:42:23.369Z,18.77
2019-05-14T01:44:53.758Z,17.80
2019-05-14T01:47:24.176Z,19.10
2019-05-14T01:49:54.561Z,17.43
2019-05-14T01:52:24.821Z,17.77
2019-05-14T01:54:55.057Z,18.97
2019-05-14T01:57:25.339Z,19.10
2019-05-14T01:59:55.963Z,19.60
2019-05-14T02:02:26.312Z,20.10
2019-05-14T02:04:56.713Z,19.50
2019-05-14T02:07:27.377Z,20.03
2019-05-14T02:09:57.983Z,17.87
2019-05-14T02:12:28.322Z,20.17
2019-05-14T02:14:58.573Z,18.90
2019-05-14T02:17:28.895Z,18.50
2019-05-14T02:20:02.046Z,18.20
2019-05-14T02:22:32.528Z,19.20
2019-05-14T02:25:02.875Z,18.40
2019-05-14T02:27:35.014Z,18.40
2019-05-14T02:30:06.003Z,18.90
2019-05-14T02:32:36.235Z,19.20
2019-05-14T02:35:09.623Z,18.87
2019-05-14T02:37:40.042Z,20.87
2019-05-14T02:40:11.142Z,19.90
2019-05-14T02:42:41.436Z,21.00
2019-05-14T02:45:11.946Z,20.30
2019-05-14T02:47:42.240Z,21.30
2019-05-14T02:50:12.603Z,19.80
2019-05-14T02:52:42.984Z,19.60
2019-05-14T02:55:13.227Z,20.57
2019-05-14T02:57:43.462Z,19.33
2019-05-14T03:00:13.998Z,19.60
2019-05-14T03:02:44.367Z,21.93
2019-05-14T03:05:14.909Z,19.20
2019-05-14T03:07:45.227Z,20.73
2019-05-14T03:10:15.596Z,18.87
2019-05-14T03:12:45.959Z,20.93
2019-05-14T03:15:19.841Z,20.00
2019-05-14T03:17:49.416Z,19.70
2019-05-14T03:20:20.324Z,19.73
2019-05-14T03:23:01.794Z,19.07
2019-05-14T03:25:23.234Z,20.50
2019-05-14T03:27:54.057Z,20.00
2019-05-14T03:30:24.368Z,18.80
2019-05-14T03:32:54.680Z,18.20
2019-05-14T03:35:35.524Z,18.63
2019-05-14T03:38:00.142Z,19.13
2019-05-14T03:40:29.495Z,19.37
2019-05-14T03:43:00.111Z,18.17
2019-05-14T03:45:30.575Z,18.40
2019-05-14T03:48:01.288Z,19.17
2019-05-14T03:50:31.573Z,18.20
2019-05-14T03:53:02.006Z,17.90
2019-05-14T03:55:32.240Z,17.90
2019-05-14T03:58:02.590Z,17.83
2019-05-14T04:00:55.107Z,18.03
2019-05-14T04:03:25.353Z,19.07
2019-05-14T04:05:58.707Z,19.07
2019-05-14T04:08:29.437Z,18.93
2019-05-14T04:11:00.785Z,19.37
2019-05-14T04:13:32.459Z,20.00
2019-05-14T04:16:04.441Z,19.30
2019-05-14T04:18:40.487Z,19.07
2019-05-14T04:21:10.534Z,20.10
2019-05-14T04:23:43.628Z,19.67
2019-05-14T04:26:19.825Z,20.83
2019-05-14T04:28:49.724Z,20.83
2019-05-14T04:31:21.227Z,20.67
2019-05-14T04:33:52.114Z,20.90
2019-05-14T04:36:22.299Z,22.73
2019-05-14T04:38:55.193Z,21.43
2019-05-14T04:41:24.563Z,24.03
2019-05-14T04:43:54.721Z,22.00
2019-05-14T04:46:24.949Z,25.07
2019-05-14T04:48:55.094Z,23.27
2019-05-14T04:51:25.374Z,23.63
2019-05-14T04:53:55.606Z,22.73
2019-05-14T04:56:25.546Z,23.30
2019-05-14T04:58:55.552Z,21.30
2019-05-14T05:01:25.786Z,23.77
2019-05-14T05:03:58.856Z,23.03
2019-05-14T05:06:29.159Z,23.67
2019-05-14T05:09:00.241Z,24.03
2019-05-14T05:11:30.516Z,23.00
2019-05-14T05:14:00.787Z,21.97
2019-05-14T05:16:31.102Z,22.23
2019-05-14T05:19:01.225Z,21.20
2019-05-14T05:21:31.409Z,21.60
2019-05-14T05:24:01.661Z,18.20
2019-05-14T05:26:31.722Z,19.57
2019-05-14T05:29:06.647Z,18.47
2019-05-14T05:31:34.005Z,17.87
2019-05-14T05:34:04.206Z,20.00
2019-05-14T05:36:34.464Z,17.47
2019-05-14T05:41:42.305Z,16.50
2019-05-14T05:44:12.495Z,18.00
2019-05-14T05:46:43.290Z,18.40
2019-05-14T05:49:13.677Z,17.37
2019-05-14T05:51:43.650Z,17.33
2019-05-14T05:54:13.820Z,15.20
2019-05-14T05:56:43.973Z,15.70
2019-05-14T05:59:14.278Z,14.87
2019-05-14T06:01:46.509Z,16.33
2019-05-14T06:04:18.236Z,16.23
2019-05-14T06:06:48.551Z,14.50
2019-05-14T06:09:19.584Z,13.47
2019-05-14T06:11:49.867Z,13.57
2019-05-14T06:14:20.004Z,13.73
2019-05-14T06:16:50.215Z,13.67
2019-05-14T06:19:20.488Z,14.97
2019-05-14T06:21:50.606Z,14.20
2019-05-14T06:24:20.779Z,14.00
2019-05-14T06:26:51.028Z,12.67
2019-05-14T06:29:21.326Z,12.33
2019-05-14T06:31:51.439Z,12.77
2019-05-14T06:34:21.588Z,12.50
2019-05-14T06:36:51.901Z,13.47
2019-05-14T06:39:22.095Z,12.50
2019-05-14T06:41:52.435Z,10.80
2019-05-14T06:44:22.611Z,10.80
2019-05-14T06:46:53.063Z,12.10
2019-05-14T06:49:23.402Z,11.30
2019-05-14T06:51:53.605Z,13.00
2019-05-14T06:54:23.822Z,12.80
2019-05-14T06:56:54.095Z,11.23
2019-05-14T06:59:24.278Z,9.53
2019-05-14T07:01:54.465Z,11.77
2019-05-14T07:04:25.085Z,9.97
2019-05-14T07:06:55.304Z,12.50
2019-05-14T07:09:28.953Z,12.30
2019-05-14T07:11:59.129Z,10.33
2019-05-14T07:14:29.320Z,10.43
2019-05-14T07:16:59.678Z,10.73
2019-05-14T07:19:29.838Z,11.60
2019-05-14T07:22:00.053Z,12.23
2019-05-14T07:24:30.239Z,12.57
2019-05-14T07:27:00.555Z,11.37
2019-05-14T07:29:30.785Z,10.80
2019-05-14T07:32:01.054Z,11.60
2019-05-14T07:34:31.632Z,11.50
2019-05-14T07:37:01.796Z,12.43
2019-05-14T07:39:31.915Z,11.50
2019-05-14T07:42:02.021Z,11.97
2019-05-14T07:44:32.230Z,12.73
2019-05-14T07:47:04.145Z,11.60
2019-05-14T07:49:34.350Z,10.40
2019-05-14T07:52:04.535Z,11.70
2019-05-14T07:54:34.763Z,11.20
2019-05-14T07:57:04.984Z,10.70
2019-05-14T07:59:35.054Z,9.80
2019-05-14T08:02:05.308Z,9.27
2019-05-14T08:04:35.447Z,9.90
2019-05-14T08:07:05.557Z,9.20
2019-05-14T08:09:35.683Z,9.07
2019-05-14T08:12:05.891Z,8.53
2019-05-14T08:14:45.934Z,9.83
2019-05-14T08:17:08.630Z,9.10
2019-05-14T08:19:39.084Z,9.53
2019-05-14T08:22:09.766Z,9.37
2019-05-14T08:24:40.055Z,8.80
2019-05-14T08:27:10.131Z,9.77
2019-05-14T08:29:40.298Z,10.00
2019-05-14T08:32:10.603Z,10.77
2019-05-14T08:34:40.780Z,8.67
2019-05-14T08:37:11.040Z,8.70
2019-05-14T08:39:41.377Z,9.80
2019-05-14T08:42:11.714Z,9.67
2019-05-14T08:44:41.931Z,8.83
2019-05-14T08:47:12.344Z,9.93
2019-05-14T08:49:46.357Z,10.37
2019-05-14T08:52:16.120Z,10.87
2019-05-14T08:54:49.170Z,10.20
2019-05-14T08:57:19.310Z,11.10
2019-05-14T08:59:49.628Z,10.07
2019-05-14T09:02:20.022Z,10.33
2019-05-14T09:04:53.627Z,11.13
2019-05-14T09:07:22.376Z,9.90
2019-05-14T09:09:52.719Z,10.00
2019-05-14T09:12:23.909Z,11.17
2019-05-14T09:14:54.335Z,11.50
2019-05-14T09:17:24.631Z,11.57
2019-05-14T09:20:01.850Z,10.30
2019-05-14T09:22:28.952Z,10.37
2019-05-14T09:25:00.048Z,9.43
2019-05-14T09:27:30.501Z,9.60
2019-05-14T09:30:00.818Z,10.50
2019-05-14T09:32:31.133Z,11.17
2019-05-14T09:35:01.469Z,11.80
2019-05-14T09:37:31.719Z,11.77
2019-05-14T09:40:01.989Z,13.43
2019-05-14T09:42:32.261Z,12.13
2019-05-14T09:45:02.542Z,12.03
2019-05-14T09:47:32.888Z,11.50
2019-05-14T09:50:18.384Z,12.20
2019-05-14T09:52:35.516Z,12.57
2019-05-14T09:55:06.066Z,12.33
2019-05-14T09:57:38.621Z,13.60
2019-05-14T10:00:10.341Z,13.63
2019-05-14T10:02:41.025Z,12.03
2019-05-14T10:05:11.631Z,12.90
2019-05-14T10:07:41.951Z,11.90
2019-05-14T10:10:12.177Z,11.80
2019-05-14T10:12:52.506Z,11.77
2019-05-14T10:15:15.017Z,11.93
2019-05-14T10:17:45.301Z,11.30
2019-05-14T10:20:35.118Z,13.20
2019-05-14T10:22:48.292Z,11.70
2019-05-14T10:25:18.720Z,12.10
2019-05-14T10:27:49.296Z,11.00
2019-05-14T10:30:19.841Z,10.40
2019-05-14T10:32:50.063Z,10.20
2019-05-14T10:35:20.350Z,10.37
2019-05-14T10:37:54.269Z,11.13
2019-05-14T10:40:22.676Z,11.30
2019-05-14T10:42:52.952Z,11.60
2019-05-14T10:45:23.334Z,12.90
2019-05-14T10:47:53.634Z,11.70
2019-05-14T10:50:24.074Z,12.13
2019-05-14T10:52:59.474Z,10.93
2019-05-14T10:55:29.420Z,9.97
2019-05-14T10:57:59.622Z,11.60
2019-05-14T11:00:29.888Z,12.03
2019-05-14T11:03:01.043Z,13.50
2019-05-14T11:05:31.155Z,11.90
2019-05-14T11:08:01.329Z,11.20
2019-05-14T11:10:31.623Z,11.67
2019-05-14T11:13:02.018Z,11.73
2019-05-14T11:15:32.304Z,12.17
2019-05-14T11:18:02.529Z,12.43
2019-05-14T11:20:32.935Z,12.93
2019-05-14T11:23:03.158Z,12.33
2019-05-14T11:25:33.428Z,12.00
2019-05-14T11:28:03.726Z,13.53
2019-05-14T11:30:34.083Z,16.50
2019-05-14T11:33:04.365Z,15.10
2019-05-14T11:35:34.698Z,13.40
2019-05-14T11:38:25.932Z,16.30
2019-05-14T11:40:38.881Z,16.77
2019-05-14T11:43:09.282Z,15.43
2019-05-14T11:45:39.701Z,16.23
2019-05-14T11:48:10.536Z,14.47
2019-05-14T11:50:40.679Z,15.17
2019-05-14T11:53:10.889Z,13.77
2019-05-14T11:55:41.611Z,13.83
2019-05-14T11:58:11.866Z,14.53
2019-05-14T12:00:42.125Z,13.40
2019-05-14T12:03:12.471Z,12.90
2019-05-14T12:05:42.792Z,13.63
2019-05-14T12:08:13.137Z,14.43
2019-05-14T12:10:43.376Z,12.97
2019-05-14T12:13:13.627Z,13.37
2019-05-14T12:15:43.881Z,13.70
2019-05-14T12:18:14.324Z,13.10
2019-05-14T12:20:44.622Z,12.00
2019-05-14T12:23:14.955Z,11.50
2019-05-14T12:25:45.512Z,12.20
2019-05-14T12:28:15.800Z,13.50
2019-05-14T12:30:48.743Z,12.37
2019-05-14T12:33:19.667Z,12.80
2019-05-14T12:35:50.240Z,15.60
2019-05-14T12:38:22.589Z,13.43
2019-05-14T12:40:52.813Z,11.40
2019-05-14T12:43:23.183Z,11.60
2019-05-14T12:45:53.530Z,13.30
2019-05-14T12:48:23.809Z,11.40
2019-05-14T12:50:53.917Z,10.87
2019-05-14T12:53:24.291Z,10.40
2019-05-14T12:55:54.571Z,11.33
2019-05-14T12:58:25.125Z,11.00
2019-05-14T13:00:55.543Z,11.90
2019-05-14T13:03:28.340Z,13.30
2019-05-14T13:05:58.777Z,11.30
2019-05-14T13:08:29.248Z,10.97
2019-05-14T13:10:59.947Z,10.50
2019-05-14T13:13:30.204Z,9.97
2019-05-14T13:16:04.184Z,8.53
2019-05-14T13:18:32.621Z,10.57
2019-05-14T13:21:02.895Z,10.20
2019-05-14T13:23:33.179Z,11.07
2019-05-14T13:26:03.532Z,11.90
2019-05-14T13:28:33.901Z,11.40
2019-05-14T13:31:04.323Z,11.77
2019-05-14T13:33:34.598Z,12.07
2019-05-14T13:36:04.844Z,11.57
2019-05-14T13:38:35.224Z,10.80
2019-05-14T13:41:05.571Z,11.07
2019-05-14T13:43:38.752Z,10.37
2019-05-14T13:46:10.005Z,11.20
2019-05-14T13:48:43.383Z,11.87
2019-05-14T13:51:12.331Z,12.10
2019-05-14T13:53:42.713Z,11.13
2019-05-14T13:56:12.985Z,10.23
2019-05-14T13:58:43.452Z,10.67
2019-05-14T14:01:13.684Z,10.13
2019-05-14T14:03:52.566Z,10.23
2019-05-14T14:06:20.451Z,10.13
2019-05-14T14:08:48.815Z,10.60
2019-05-14T14:11:19.561Z,9.53
2019-05-14T14:13:50.246Z,10.23
2019-05-14T14:16:23.140Z,9.43
2019-05-14T14:18:53.283Z,9.63
2019-05-14T14:21:23.731Z,9.00
2019-05-14T14:23:54.052Z,8.33
2019-05-14T14:26:24.320Z,8.20
2019-05-14T14:28:54.688Z,8.10
2019-05-14T14:31:24.881Z,9.17
2019-05-14T14:33:55.782Z,8.93
2019-05-14T14:36:29.845Z,9.23
2019-05-14T14:38:58.948Z,9.50
2019-05-14T14:41:29.317Z,9.40
2019-05-14T14:43:59.696Z,9.43
2019-05-14T14:46:29.989Z,10.23
2019-05-14T14:49:02.664Z,9.00
2019-05-14T14:51:32.369Z,8.17
2019-05-14T14:54:10.918Z,9.00
2019-05-14T14:56:34.691Z,8.90
2019-05-14T14:59:05.024Z,8.43
2019-05-14T15:01:35.228Z,9.60
2019-05-14T15:04:05.506Z,10.23
2019-05-14T15:06:39.450Z,8.77
2019-05-14T15:09:09.772Z,8.80
2019-05-14T15:11:40.319Z,9.33
2019-05-14T15:14:10.627Z,9.90
2019-05-14T15:16:41.876Z,10.20
2019-05-14T15:19:12.655Z,10.03
2019-05-14T15:21:43.334Z,9.20
2019-05-14T15:24:15.644Z,9.97
2019-05-14T15:26:45.562Z,11.50
2019-05-14T15:29:18.505Z,9.40
2019-05-14T15:31:49.414Z,10.33
2019-05-14T15:34:19.697Z,10.00
2019-05-14T15:36:50.011Z,9.60
2019-05-14T15:39:22.454Z,9.53
2019-05-14T15:41:52.992Z,9.87
2019-05-14T15:44:23.222Z,10.00
2019-05-14T15:46:53.501Z,9.80
2019-05-14T15:49:23.805Z,10.80
2019-05-14T15:51:54.051Z,11.47
2019-05-14T15:54:39.220Z,9.57
2019-05-14T15:56:58.656Z,11.23
2019-05-14T15:59:28.549Z,11.17
2019-05-14T16:01:59.268Z,11.57
2019-05-14T16:04:29.603Z,11.13
2019-05-14T16:06:59.841Z,10.90
2019-05-14T16:09:30.044Z,11.33
2019-05-14T16:12:00.535Z,10.60
2019-05-14T16:14:30.870Z,11.47
2019-05-14T16:17:01.195Z,11.40
2019-05-14T16:19:31.555Z,11.20
2019-05-14T16:22:01.786Z,10.73
2019-05-14T16:24:32.212Z,12.63
2019-05-14T16:27:02.950Z,11.00
2019-05-14T16:29:41.202Z,10.70
2019-05-14T16:32:05.384Z,11.97
2019-05-14T16:34:40.239Z,12.57
2019-05-14T16:37:11.163Z,12.90
2019-05-14T16:39:39.801Z,12.73
2019-05-14T16:42:10.169Z,13.43
2019-05-14T16:44:40.474Z,13.13
2019-05-14T16:47:10.878Z,14.00
2019-05-14T16:49:41.199Z,13.10
2019-05-14T16:52:11.758Z,13.90
2019-05-14T16:54:42.568Z,14.90
2019-05-14T16:57:12.913Z,14.50
2019-05-14T16:59:43.377Z,14.33
2019-05-14T17:02:13.746Z,14.23
2019-05-14T17:04:44.392Z,14.10
2019-05-14T17:07:15.229Z,14.00
2019-05-14T17:09:45.704Z,13.33
2019-05-14T17:12:20.089Z,14.70
2019-05-14T17:14:48.045Z,14.30
2019-05-14T17:17:20.162Z,14.97
2019-05-14T17:19:51.546Z,14.00
2019-05-14T17:22:29.111Z,15.00
2019-05-14T17:24:53.946Z,16.13
2019-05-14T17:27:24.181Z,17.13
2019-05-14T17:29:54.517Z,15.90
2019-05-14T17:32:25.116Z,16.87
2019-05-14T17:34:55.360Z,17.27
2019-05-14T17:37:28.436Z,15.47
2019-05-14T17:39:58.235Z,16.77
2019-05-14T17:42:28.709Z,16.37
2019-05-14T17:44:59.804Z,14.57
2019-05-14T17:47:30.526Z,16.40
2019-05-14T17:50:00.809Z,15.20
2019-05-14T17:52:32.346Z,15.33
2019-05-14T17:55:02.730Z,14.80
2019-05-14T17:57:35.349Z,16.17
2019-05-14T18:00:09.460Z,14.20
2019-05-14T18:02:39.779Z,15.37
2019-05-14T18:05:10.321Z,15.00
2019-05-14T18:07:40.802Z,15.33
2019-05-14T18:10:12.299Z,15.20
2019-05-14T18:12:42.635Z,15.30
2019-05-14T18:15:13.119Z,16.20
2019-05-14T18:17:43.431Z,15.60
2019-05-14T18:20:14.655Z,15.67
2019-05-14T18:22:45.059Z,15.00
2019-05-14T18:25:15.378Z,16.97
2019-05-14T18:27:46.066Z,17.00
2019-05-14T18:30:18.217Z,17.30
2019-05-14T18:32:48.881Z,17.03
2019-05-14T18:35:19.143Z,16.70
2019-05-14T18:37:49.430Z,17.60
2019-05-14T18:40:20.044Z,16.27
2019-05-14T18:42:50.301Z,17.37
2019-05-14T18:45:20.742Z,17.70
2019-05-14T18:47:51.067Z,16.30
2019-05-14T18:50:21.399Z,15.33
2019-05-14T18:52:51.811Z,17.90
2019-05-14T18:55:22.050Z,17.60
2019-05-14T18:57:52.273Z,15.63
2019-05-14T19:00:22.739Z,16.03
2019-05-14T19:02:53.174Z,17.90
2019-05-14T19:05:23.901Z,15.67
2019-05-14T19:07:54.198Z,16.60
2019-05-14T19:10:24.546Z,16.47
2019-05-14T19:12:54.809Z,17.23
2019-05-14T19:15:25.180Z,15.80
2019-05-14T19:17:57.891Z,17.07
2019-05-14T19:20:28.292Z,17.33
2019-05-14T19:23:00.245Z,16.70
2019-05-14T19:25:31.267Z,17.87
2019-05-14T19:28:01.541Z,16.87
2019-05-14T19:30:32.458Z,17.43
2019-05-14T19:33:03.158Z,17.90
2019-05-14T19:35:33.522Z,18.20
2019-05-14T19:38:03.825Z,19.47
2019-05-14T19:40:34.098Z,16.03
2019-05-14T19:43:04.336Z,18.90
2019-05-14T19:45:35.237Z,17.37
2019-05-14T19:48:08.042Z,17.77
2019-05-14T19:50:38.693Z,15.60
2019-05-14T19:53:09.245Z,17.40
2019-05-14T19:55:39.678Z,16.30
2019-05-14T19:58:09.977Z,17.57
2019-05-14T20:00:40.287Z,18.37
2019-05-14T20:03:10.563Z,18.50
2019-05-14T20:05:40.902Z,18.53
2019-05-14T20:08:11.160Z,18.50
2019-05-14T20:10:41.439Z,16.80
2019-05-14T20:13:11.796Z,16.40
2019-05-14T20:15:42.135Z,19.30
2019-05-14T20:18:13.499Z,22.10
2019-05-14T20:20:43.729Z,17.93
2019-05-14T20:23:14.059Z,18.77
2019-05-14T20:25:44.370Z,17.27
2019-05-14T20:28:15.011Z,15.57
2019-05-14T20:30:45.316Z,15.70
2019-05-14T20:33:15.759Z,15.60
2019-05-14T20:35:47.912Z,14.20
2019-05-14T20:38:18.590Z,13.07
2019-05-14T20:40:48.953Z,14.83
2019-05-14T20:43:19.299Z,15.37
2019-05-14T20:45:49.730Z,15.40
2019-05-14T20:48:20.471Z,11.63
2019-05-14T20:50:50.704Z,13.43
2019-05-14T20:53:20.922Z,13.03
2019-05-14T20:55:51.285Z,13.10
2019-05-14T20:58:21.908Z,12.00
2019-05-14T21:00:52.241Z,13.20
2019-05-14T21:03:22.664Z,11.30
2019-05-14T21:05:53.082Z,11.97
2019-05-14T21:08:23.864Z,11.47
2019-05-14T21:10:58.685Z,11.43
2019-05-14T21:13:28.189Z,12.40
2019-05-14T21:15:58.508Z,13.07
2019-05-14T21:18:35.231Z,11.10
2019-05-14T21:21:00.777Z,12.30
2019-05-14T21:23:32.051Z,12.60
2019-05-14T21:26:02.465Z,9.30
2019-05-14T21:28:32.776Z,11.40
2019-05-14T21:31:03.074Z,10.33
2019-05-14T21:33:33.581Z,12.27
2019-05-14T21:36:03.931Z,11.10
2019-05-14T21:38:34.225Z,12.00
2019-05-14T21:41:04.611Z,11.83
2019-05-14T21:43:35.051Z,10.77
2019-05-14T21:46:05.322Z,10.80
2019-05-14T21:48:35.525Z,11.70
2019-05-14T21:51:05.898Z,10.23
2019-05-14T21:53:38.683Z,11.43
2019-05-14T21:56:10.445Z,13.23
2019-05-14T21:58:41.005Z,13.27
2019-05-14T22:01:12.273Z,12.17
2019-05-14T22:03:42.628Z,12.57
2019-05-14T22:06:13.009Z,12.20
2019-05-14T22:08:43.649Z,12.00
2019-05-14T22:11:14.377Z,13.60
2019-05-14T22:13:45.392Z,14.03
2019-05-14T22:16:15.688Z,13.20
2019-05-14T22:18:48.247Z,13.00
2019-05-14T22:21:18.495Z,14.43
2019-05-14T22:23:49.816Z,12.87
2019-05-14T22:26:20.182Z,13.63
2019-05-14T22:28:51.309Z,14.10
2019-05-14T22:31:21.992Z,12.60
2019-05-14T22:33:52.892Z,12.90
2019-05-14T22:36:23.266Z,14.40
2019-05-14T22:38:53.600Z,14.40
2019-05-14T22:41:28.907Z,13.60
2019-05-14T22:44:00.035Z,13.20
2019-05-14T22:46:30.494Z,14.67
2019-05-14T22:49:00.803Z,14.83
2019-05-14T22:51:33.197Z,14.70
2019-05-14T22:54:03.297Z,14.30
2019-05-14T22:56:33.585Z,13.83
2019-05-14T22:59:06.168Z,14.03
2019-05-14T23:01:38.591Z,15.30
2019-05-14T23:04:09.054Z,15.63
2019-05-14T23:06:39.522Z,15.87
2019-05-14T23:09:09.834Z,16.03
2019-05-14T23:11:40.203Z,14.97
2019-05-14T23:14:10.602Z,14.60
2019-05-14T23:16:41.974Z,13.63
2019-05-14T23:19:12.380Z,14.30
2019-05-14T23:21:42.724Z,15.27
2019-05-14T23:24:13.161Z,14.90
2019-05-14T23:26:44.026Z,14.30
2019-05-14T23:29:14.302Z,13.10
2019-05-14T23:31:44.907Z,14.40
2019-05-14T23:34:15.372Z,12.80
2019-05-14T23:36:48.312Z,14.27
2019-05-14T23:39:18.724Z,15.87
2019-05-14T23:41:49.522Z,13.67
2019-05-14T23:44:22.031Z,12.90
2019-05-14T23:46:52.346Z,14.23
2019-05-14T23:49:22.560Z,13.80
2019-05-14T23:51:52.888Z,14.17
2019-05-14T23:54:23.574Z,14.30
2019-05-14T23:56:53.881Z,12.70
2019-05-14T23:59:25.046Z,13.43
